createdAt,value
2023-04-28T00:01:12.131Z,3.00
2023-04-28T00:03:38.936Z,2.88
2023-04-28T00:06:05.954Z,2.33
2023-04-28T00:08:32.758Z,3.05
2023-04-28T00:11:00.253Z,3.03
2023-04-28T00:13:26.985Z,2.60
2023-04-28T00:15:53.925Z,2.72
2023-04-28T00:18:21.122Z,2.70
2023-04-28T00:20:47.817Z,3.28
2023-04-28T00:23:14.660Z,2.80
2023-04-28T00:25:41.041Z,2.80
2023-04-28T00:28:07.531Z,2.90
2023-04-28T00:30:33.862Z,2.90
2023-04-28T00:33:00.445Z,3.60
2023-04-28T00:35:26.908Z,3.15
2023-04-28T00:37:53.349Z,2.88
2023-04-28T00:40:19.728Z,3.30
2023-04-28T00:42:46.211Z,3.40
2023-04-28T00:45:12.597Z,2.90
2023-04-28T00:47:39.186Z,3.35
2023-04-28T00:50:06.435Z,3.28
2023-04-28T00:52:32.881Z,3.08
2023-04-28T00:54:59.519Z,3.05
2023-04-28T00:57:27.117Z,3.17
2023-04-28T00:59:53.948Z,3.35
2023-04-28T01:02:20.614Z,3.10
2023-04-28T01:04:48.151Z,3.45
2023-04-28T01:07:14.591Z,3.08
2023-04-28T01:09:40.964Z,3.83
2023-04-28T01:12:08.119Z,3.15
2023-04-28T01:14:34.807Z,3.13
2023-04-28T01:17:01.823Z,2.90
2023-04-28T01:19:29.644Z,3.17
2023-04-28T01:21:56.145Z,3.35
2023-04-28T01:24:22.809Z,2.70
2023-04-28T01:26:49.237Z,3.35
2023-04-28T01:29:15.718Z,3.40
2023-04-28T01:31:42.257Z,3.03
2023-04-28T01:34:08.678Z,3.03
2023-04-28T01:36:37.384Z,3.47
2023-04-28T01:39:04.726Z,3.20
2023-04-28T01:41:31.350Z,3.17
2023-04-28T01:43:57.753Z,3.50
2023-04-28T01:46:24.225Z,3.22
2023-04-28T01:51:27.330Z,3.25
2023-04-28T01:53:53.722Z,3.40
2023-04-28T01:56:20.054Z,3.33
2023-04-28T01:58:46.486Z,3.30
2023-04-28T02:01:13.098Z,3.67
2023-04-28T02:03:39.682Z,3.25
2023-04-28T02:06:06.270Z,3.08
2023-04-28T02:08:32.655Z,3.40
2023-04-28T02:10:58.985Z,3.13
2023-04-28T02:13:25.354Z,3.17
2023-04-28T02:15:51.719Z,3.85
2023-04-28T02:18:18.110Z,3.38
2023-04-28T02:20:44.440Z,3.40
2023-04-28T02:23:10.782Z,3.50
2023-04-28T02:25:37.160Z,3.80
2023-04-28T02:28:03.973Z,3.58
2023-04-28T02:30:30.359Z,3.30
2023-04-28T02:32:56.761Z,3.35
2023-04-28T02:35:23.197Z,3.03
2023-04-28T02:37:49.587Z,3.58
2023-04-28T02:40:16.076Z,3.50
2023-04-28T02:42:42.618Z,3.50
2023-04-28T02:45:09.371Z,3.35
2023-04-28T02:47:35.821Z,3.72
2023-04-28T02:50:02.454Z,3.40
2023-04-28T02:52:28.812Z,3.67
2023-04-28T02:54:57.374Z,3.38
2023-04-28T02:57:24.320Z,3.33
2023-04-28T02:59:50.876Z,3.95
2023-04-28T03:02:17.357Z,3.38
2023-04-28T03:04:43.862Z,3.72
2023-04-28T03:07:10.335Z,3.08
2023-04-28T03:09:36.651Z,3.30
2023-04-28T03:12:03.462Z,3.17
2023-04-28T03:14:29.796Z,3.25
2023-04-28T03:16:57.725Z,3.38
2023-04-28T03:19:24.260Z,3.25
2023-04-28T03:21:50.794Z,3.67
2023-04-28T03:24:17.361Z,3.38
2023-04-28T03:26:44.076Z,3.38
2023-04-28T03:29:10.474Z,3.15
2023-04-28T03:31:36.891Z,3.75
2023-04-28T03:34:04.323Z,3.40
2023-04-28T03:36:30.678Z,3.50
2023-04-28T03:38:56.990Z,3.53
2023-04-28T03:41:23.321Z,3.55
2023-04-28T03:43:49.657Z,3.22
2023-04-28T03:46:16.061Z,3.78
2023-04-28T03:48:42.422Z,3.30
2023-04-28T03:51:08.830Z,3.85
2023-04-28T03:53:35.279Z,3.80
2023-04-28T03:56:01.754Z,3.83
2023-04-28T03:58:28.662Z,3.13
2023-04-28T04:00:54.990Z,3.88
2023-04-28T04:03:23.072Z,3.67
2023-04-28T04:05:49.770Z,3.90
2023-04-28T04:08:16.293Z,3.53
2023-04-28T04:10:42.716Z,3.50
2023-04-28T04:13:09.125Z,3.65
2023-04-28T04:15:35.744Z,4.18
2023-04-28T04:18:02.443Z,4.28
2023-04-28T04:20:28.866Z,4.53
2023-04-28T04:22:55.448Z,4.15
2023-04-28T04:25:23.353Z,3.92
2023-04-28T04:27:49.906Z,4.32
2023-04-28T04:30:16.271Z,4.35
2023-04-28T04:32:42.807Z,3.83
2023-04-28T04:35:09.595Z,3.92
2023-04-28T04:37:36.061Z,3.85
2023-04-28T04:40:03.415Z,3.95
2023-04-28T04:42:29.863Z,4.20
2023-04-28T04:44:56.212Z,4.40
2023-04-28T04:47:22.613Z,4.50
2023-04-28T04:49:52.409Z,4.38
2023-04-28T04:52:18.910Z,4.00
2023-04-28T04:54:46.225Z,3.75
2023-04-28T04:57:12.995Z,3.95
2023-04-28T04:59:39.376Z,4.32
2023-04-28T05:02:06.045Z,4.22
2023-04-28T05:04:32.600Z,4.75
2023-04-28T05:06:59.092Z,4.38
2023-04-28T05:09:25.520Z,4.47
2023-04-28T05:11:51.892Z,4.15
2023-04-28T05:14:18.498Z,4.80
2023-04-28T05:16:45.308Z,4.47
2023-04-28T05:19:11.721Z,4.72
2023-04-28T05:21:38.077Z,5.00
2023-04-28T05:24:04.794Z,4.57
2023-04-28T05:26:31.262Z,4.18
2023-04-28T05:28:57.618Z,4.95
2023-04-28T05:31:24.073Z,4.90
2023-04-28T05:33:50.422Z,4.47
2023-04-28T05:36:17.057Z,4.80
2023-04-28T05:38:44.023Z,4.70
2023-04-28T05:41:10.410Z,4.53
2023-04-28T05:43:37.343Z,4.82
2023-04-28T05:46:05.090Z,4.40
2023-04-28T05:48:32.689Z,4.97
2023-04-28T05:50:59.050Z,4.90
2023-04-28T05:53:25.667Z,4.72
2023-04-28T05:55:52.433Z,4.78
2023-04-28T05:58:18.832Z,4.88
2023-04-28T06:00:45.227Z,5.40
2023-04-28T06:03:14.414Z,5.32
2023-04-28T06:05:41.411Z,4.85
2023-04-28T06:08:08.325Z,4.82
2023-04-28T06:10:34.745Z,5.65
2023-04-28T06:13:02.412Z,4.57
2023-04-28T06:15:28.804Z,5.10
2023-04-28T06:17:55.572Z,5.63
2023-04-28T06:20:22.163Z,4.88
2023-04-28T06:22:48.547Z,5.05
2023-04-28T06:25:14.962Z,5.28
2023-04-28T06:27:41.429Z,5.18
2023-04-28T06:30:08.404Z,5.40
2023-04-28T06:32:34.865Z,5.05
2023-04-28T06:35:01.320Z,5.15
2023-04-28T06:37:27.679Z,4.95
2023-04-28T06:39:54.107Z,5.10
2023-04-28T06:42:20.797Z,5.00
2023-04-28T06:44:47.220Z,5.20
2023-04-28T06:47:13.642Z,5.13
2023-04-28T06:49:40.058Z,5.75
2023-04-28T06:52:07.822Z,5.45
2023-04-28T06:54:34.348Z,5.15
2023-04-28T06:57:00.929Z,5.30
2023-04-28T06:59:27.268Z,5.50
2023-04-28T07:01:53.671Z,5.63
2023-04-28T07:04:20.411Z,5.53
2023-04-28T07:06:47.140Z,6.22
2023-04-28T07:09:13.713Z,5.85
2023-04-28T07:11:40.066Z,5.80
2023-04-28T07:14:08.165Z,6.05
2023-04-28T07:16:34.568Z,5.40
2023-04-28T07:19:00.942Z,5.15
2023-04-28T07:21:28.108Z,5.40
2023-04-28T07:23:57.425Z,5.43
2023-04-28T07:26:24.066Z,6.35
2023-04-28T07:28:50.406Z,6.15
2023-04-28T07:31:16.885Z,5.53
2023-04-28T07:33:43.308Z,6.13
2023-04-28T07:36:09.867Z,6.15
2023-04-28T07:38:36.598Z,5.88
2023-04-28T07:41:04.296Z,5.78
2023-04-28T07:43:31.616Z,6.10
2023-04-28T07:45:58.121Z,6.07
2023-04-28T07:50:55.784Z,5.70
2023-04-28T07:53:22.276Z,6.18
2023-04-28T07:55:48.780Z,5.65
2023-04-28T07:58:15.276Z,6.43
2023-04-28T08:00:41.728Z,5.95
2023-04-28T08:03:08.449Z,6.03
2023-04-28T08:05:35.181Z,6.05
2023-04-28T08:08:01.647Z,6.07
2023-04-28T08:10:28.881Z,6.45
2023-04-28T08:12:55.369Z,6.50
2023-04-28T08:15:22.039Z,6.13
2023-04-28T08:17:48.508Z,6.38
2023-04-28T08:20:15.613Z,6.30
2023-04-28T08:22:42.219Z,5.93
2023-04-28T08:25:09.067Z,6.20
2023-04-28T08:27:38.089Z,6.55
2023-04-28T08:30:05.301Z,6.88
2023-04-28T08:32:31.815Z,6.53
2023-04-28T08:34:58.503Z,7.10
2023-04-28T08:37:24.921Z,6.50
2023-04-28T08:39:52.744Z,6.65
2023-04-28T08:42:20.287Z,7.05
2023-04-28T08:44:47.758Z,7.45
2023-04-28T08:47:15.048Z,7.00
2023-04-28T08:49:42.071Z,7.05
2023-04-28T08:52:13.088Z,7.53
2023-04-28T08:54:41.538Z,7.28
2023-04-28T08:57:11.327Z,7.22
2023-04-28T08:59:40.116Z,6.75
2023-04-28T09:02:08.343Z,7.22
2023-04-28T09:04:35.526Z,6.93
2023-04-28T09:07:02.635Z,7.05
2023-04-28T09:09:33.290Z,7.00
2023-04-28T09:12:03.952Z,7.68
2023-04-28T09:14:33.088Z,7.80
2023-04-28T09:16:59.820Z,7.30
2023-04-28T09:19:37.015Z,7.72
2023-04-28T09:22:17.517Z,7.28
2023-04-28T09:24:53.019Z,6.57
2023-04-28T09:27:30.645Z,7.75
2023-04-28T09:29:57.141Z,7.80
2023-04-28T09:32:24.442Z,7.72
2023-04-28T09:34:53.895Z,8.13
2023-04-28T09:37:22.570Z,7.55
2023-04-28T09:39:54.772Z,7.43
2023-04-28T09:42:37.799Z,8.10
2023-04-28T09:45:11.819Z,7.60
2023-04-28T09:47:41.031Z,7.72
2023-04-28T09:50:12.457Z,8.07
2023-04-28T09:52:39.042Z,7.40
2023-04-28T09:55:08.599Z,8.55
2023-04-28T09:57:36.547Z,8.25
2023-04-28T10:00:06.616Z,8.25
2023-04-28T10:05:09.933Z,8.20
2023-04-28T10:07:37.506Z,8.63
2023-04-28T10:10:05.452Z,8.32
2023-04-28T10:12:32.854Z,8.40
2023-04-28T10:15:00.492Z,9.00
2023-04-28T10:17:29.376Z,8.52
2023-04-28T10:19:57.421Z,7.72
2023-04-28T10:22:53.554Z,8.00
2023-04-28T10:25:34.152Z,7.75
2023-04-28T10:28:04.869Z,8.35
2023-04-28T10:30:31.463Z,8.75
2023-04-28T10:33:26.202Z,7.82
2023-04-28T10:35:53.008Z,8.80
2023-04-28T10:38:24.103Z,8.20
2023-04-28T10:40:54.331Z,7.13
2023-04-28T10:43:31.001Z,7.75
2023-04-28T10:46:00.340Z,7.82
2023-04-28T10:48:26.758Z,8.65
2023-04-28T10:51:06.109Z,8.32
2023-04-28T10:53:58.793Z,8.85
2023-04-28T10:56:27.103Z,7.75
2023-04-28T10:58:58.349Z,7.25
2023-04-28T11:01:25.657Z,7.07
2023-04-28T11:04:04.135Z,7.75
2023-04-28T11:06:41.988Z,7.72
2023-04-28T11:09:14.644Z,7.40
2023-04-28T11:11:41.094Z,7.72
2023-04-28T11:14:17.204Z,6.53
2023-04-28T11:17:13.163Z,6.60
2023-04-28T11:19:42.065Z,6.43
2023-04-28T11:22:14.473Z,5.90
2023-04-28T11:24:41.349Z,6.88
2023-04-28T11:27:08.540Z,6.72
2023-04-28T11:29:40.460Z,6.18
2023-04-28T11:32:09.463Z,6.17
2023-04-28T11:34:37.008Z,5.88
2023-04-28T11:37:04.011Z,5.22
2023-04-28T11:39:32.416Z,6.07
2023-04-28T11:42:02.357Z,6.45
2023-04-28T11:44:31.718Z,6.32
2023-04-28T11:47:01.023Z,5.63
2023-04-28T11:49:33.677Z,5.85
2023-04-28T11:52:07.362Z,5.68
2023-04-28T11:54:34.284Z,5.50
2023-04-28T11:57:03.917Z,5.60
2023-04-28T11:59:35.391Z,5.95
2023-04-28T12:02:04.193Z,6.22
2023-04-28T12:04:31.811Z,5.68
2023-04-28T12:06:59.732Z,5.75
2023-04-28T12:09:26.460Z,6.43
2023-04-28T12:12:02.778Z,5.95
2023-04-28T12:14:30.296Z,5.82
2023-04-28T12:16:58.461Z,5.95
2023-04-28T12:19:24.953Z,6.47
2023-04-28T12:22:01.820Z,6.00
2023-04-28T12:24:28.971Z,6.07
2023-04-28T12:26:55.712Z,5.53
2023-04-28T12:29:42.052Z,5.82
2023-04-28T12:32:10.852Z,6.72
2023-04-28T12:34:39.709Z,6.28
2023-04-28T12:37:07.181Z,6.85
2023-04-28T12:39:39.513Z,6.43
2023-04-28T12:42:06.980Z,6.80
2023-04-28T12:44:37.926Z,7.95
2023-04-28T12:47:07.280Z,7.40
2023-04-28T12:49:35.858Z,7.82
2023-04-28T12:52:03.693Z,7.25
2023-04-28T12:54:31.029Z,8.23
2023-04-28T12:56:57.789Z,7.90
2023-04-28T12:59:24.372Z,8.73
2023-04-28T13:01:51.224Z,8.18
2023-04-28T13:04:19.280Z,8.10
2023-04-28T13:06:46.377Z,8.45
2023-04-28T13:09:16.825Z,7.97
2023-04-28T13:11:43.662Z,8.35
2023-04-28T13:14:10.531Z,8.20
2023-04-28T13:16:37.566Z,8.60
2023-04-28T13:19:09.456Z,7.75
2023-04-28T13:21:39.194Z,8.27
2023-04-28T13:24:06.234Z,8.30
2023-04-28T13:26:33.039Z,7.90
2023-04-28T13:29:00.264Z,7.75
2023-04-28T13:31:27.363Z,8.45
2023-04-28T13:33:53.838Z,9.00
2023-04-28T13:36:20.381Z,9.35
2023-04-28T13:38:49.032Z,8.45
2023-04-28T13:41:16.670Z,9.02
2023-04-28T13:43:43.698Z,8.98
2023-04-28T13:46:11.053Z,9.13
2023-04-28T13:51:25.504Z,9.80
2023-04-28T13:53:51.952Z,9.88
2023-04-28T13:56:18.331Z,10.25
2023-04-28T13:58:44.933Z,10.55
2023-04-28T14:01:11.333Z,9.52
2023-04-28T14:03:37.856Z,10.57
2023-04-28T14:06:04.631Z,10.52
2023-04-28T14:08:31.207Z,11.73
2023-04-28T14:10:57.908Z,10.10
2023-04-28T14:13:27.307Z,11.43
2023-04-28T14:15:59.025Z,11.45
2023-04-28T14:18:26.364Z,11.23
2023-04-28T14:20:54.362Z,12.30
2023-04-28T14:23:22.037Z,13.35
2023-04-28T14:25:48.550Z,12.00
2023-04-28T14:28:14.932Z,12.18
2023-04-28T14:30:41.707Z,13.15
2023-04-28T14:33:08.264Z,13.35
2023-04-28T14:35:35.017Z,12.65
2023-04-28T14:38:03.673Z,13.85
2023-04-28T14:40:30.712Z,14.40
2023-04-28T14:42:57.691Z,13.18
2023-04-28T14:45:24.412Z,12.90
2023-04-28T14:47:50.831Z,13.65
2023-04-28T14:50:18.480Z,13.73
2023-04-28T14:52:44.862Z,13.88
2023-04-28T14:55:11.322Z,13.68
2023-04-28T14:57:37.984Z,12.05
2023-04-28T15:00:07.101Z,13.98
2023-04-28T15:02:34.244Z,14.05
2023-04-28T15:05:00.969Z,13.55
2023-04-28T15:07:31.858Z,15.48
2023-04-28T15:09:59.769Z,13.88
2023-04-28T15:12:27.010Z,14.52
2023-04-28T15:14:53.992Z,15.02
2023-04-28T15:17:21.194Z,14.73
2023-04-28T15:19:47.761Z,14.77
2023-04-28T15:22:14.311Z,15.20
2023-04-28T15:24:41.249Z,15.60
2023-04-28T15:27:07.844Z,14.73
2023-04-28T15:29:34.596Z,15.60
2023-04-28T15:32:01.013Z,16.88
2023-04-28T15:34:27.482Z,14.90
2023-04-28T15:36:54.149Z,16.50
2023-04-28T15:39:20.573Z,16.42
2023-04-28T15:41:47.664Z,16.42
2023-04-28T15:44:14.453Z,16.45
2023-04-28T15:46:41.108Z,16.48
2023-04-28T15:49:08.551Z,17.05
2023-04-28T15:51:34.929Z,15.05
2023-04-28T15:54:01.570Z,15.68
2023-04-28T15:56:28.857Z,16.92
2023-04-28T15:58:55.406Z,16.70
2023-04-28T16:01:22.451Z,17.90
2023-04-28T16:03:49.112Z,17.73
2023-04-28T16:06:15.616Z,17.23
2023-04-28T16:08:42.778Z,18.17
2023-04-28T16:11:17.414Z,19.98
2023-04-28T16:13:44.921Z,19.25
2023-04-28T16:16:15.087Z,17.42
2023-04-28T16:21:09.338Z,15.00
2023-04-28T16:23:35.898Z,15.20
2023-04-28T16:26:02.304Z,12.65
2023-04-28T16:28:28.797Z,11.07
2023-04-28T16:30:55.225Z,9.70
2023-04-28T16:33:21.642Z,10.68
2023-04-28T16:35:58.213Z,9.95
2023-04-28T16:38:24.571Z,10.00
2023-04-28T16:40:51.358Z,8.20
2023-04-28T16:43:18.151Z,9.23
2023-04-28T16:45:44.588Z,8.45
2023-04-28T16:48:11.113Z,7.93
2023-04-28T16:50:39.614Z,7.75
2023-04-28T16:53:07.811Z,6.68
2023-04-28T16:55:37.396Z,6.13
2023-04-28T16:58:04.054Z,5.85
2023-04-28T17:00:31.010Z,6.40
2023-04-28T17:02:57.631Z,6.82
2023-04-28T17:05:24.064Z,7.00
2023-04-28T17:07:50.648Z,6.35
2023-04-28T17:10:17.034Z,6.35
2023-04-28T17:12:45.288Z,6.28
2023-04-28T17:15:15.134Z,6.55
2023-04-28T17:17:41.510Z,5.95
2023-04-28T17:20:08.327Z,6.28
2023-04-28T17:22:35.349Z,6.18
2023-04-28T17:25:01.803Z,6.65
2023-04-28T17:27:28.152Z,6.68
2023-04-28T17:29:54.591Z,6.38
2023-04-28T17:32:21.498Z,6.22
2023-04-28T17:34:48.047Z,6.63
2023-04-28T17:37:14.510Z,6.35
2023-04-28T17:39:41.009Z,5.25
2023-04-28T17:42:07.377Z,5.53
2023-04-28T17:44:33.755Z,5.80
2023-04-28T17:47:01.069Z,5.57
2023-04-28T17:49:27.630Z,5.35
2023-04-28T17:51:54.001Z,5.30
2023-04-28T17:54:20.372Z,5.57
2023-04-28T17:56:46.832Z,5.60
2023-04-28T17:59:14.481Z,5.25
2023-04-28T18:01:40.855Z,5.15
2023-04-28T18:04:07.523Z,4.78
2023-04-28T18:06:34.055Z,5.53
2023-04-28T18:09:00.406Z,4.97
2023-04-28T18:11:27.974Z,5.43
2023-04-28T18:13:54.480Z,5.10
2023-04-28T18:16:21.013Z,4.65
2023-04-28T18:18:48.489Z,4.85
2023-04-28T18:21:14.930Z,5.18
2023-04-28T18:23:41.416Z,4.53
2023-04-28T18:26:08.532Z,4.60
2023-04-28T18:28:34.935Z,4.20
2023-04-28T18:31:05.607Z,4.38
2023-04-28T18:33:32.667Z,4.45
2023-04-28T18:36:04.978Z,5.05
2023-04-28T18:38:34.371Z,4.45
2023-04-28T18:41:02.096Z,5.28
2023-04-28T18:43:28.551Z,5.38
2023-04-28T18:45:55.020Z,5.57
2023-04-28T18:48:21.677Z,6.60
2023-04-28T18:50:48.581Z,6.15
2023-04-28T18:53:15.593Z,6.82
2023-04-28T18:55:41.955Z,7.05
2023-04-28T18:58:08.414Z,7.28
2023-04-28T19:00:37.030Z,6.35
2023-04-28T19:03:04.094Z,6.65
2023-04-28T19:05:30.770Z,6.72
2023-04-28T19:07:57.143Z,6.88
2023-04-28T19:10:23.541Z,7.10
2023-04-28T19:12:49.944Z,7.38
2023-04-28T19:15:17.053Z,7.85
2023-04-28T19:17:44.323Z,8.27
2023-04-28T19:20:11.246Z,7.90
2023-04-28T19:22:40.311Z,7.70
2023-04-28T19:25:07.235Z,7.78
2023-04-28T19:27:35.543Z,8.02
2023-04-28T19:30:03.593Z,8.23
2023-04-28T19:32:30.348Z,8.80
2023-04-28T19:34:56.991Z,8.73
2023-04-28T19:37:23.530Z,8.27
2023-04-28T19:39:51.043Z,8.10
2023-04-28T19:42:18.420Z,8.35
2023-04-28T19:44:47.143Z,8.55
2023-04-28T19:47:13.725Z,7.85
2023-04-28T19:52:31.140Z,8.55
2023-04-28T19:54:57.628Z,8.68
2023-04-28T19:57:24.201Z,8.88
2023-04-28T19:59:50.831Z,8.95
2023-04-28T20:02:17.762Z,9.05
2023-04-28T20:04:44.491Z,8.90
2023-04-28T20:07:11.444Z,8.88
2023-04-28T20:09:38.701Z,8.93
2023-04-28T20:12:07.718Z,9.57
2023-04-28T20:14:34.895Z,10.45
2023-04-28T20:17:03.606Z,8.52
2023-04-28T20:19:30.367Z,9.18
2023-04-28T20:21:56.805Z,9.18
2023-04-28T20:24:23.384Z,9.20
2023-04-28T20:26:50.607Z,8.18
2023-04-28T20:29:17.784Z,8.38
2023-04-28T20:31:44.213Z,8.98
2023-04-28T20:34:10.703Z,9.18
2023-04-28T20:36:37.527Z,9.18
2023-04-28T20:39:04.454Z,9.45
2023-04-28T20:41:31.131Z,10.30
2023-04-28T20:43:57.588Z,9.77
2023-04-28T20:46:24.147Z,9.25
2023-04-28T20:48:50.642Z,9.90
2023-04-28T20:51:17.399Z,9.65
2023-04-28T20:53:43.894Z,9.68
2023-04-28T20:56:10.355Z,9.80
2023-04-28T20:58:36.950Z,10.23
2023-04-28T21:01:03.567Z,10.40
2023-04-28T21:03:30.682Z,10.05
2023-04-28T21:05:57.232Z,10.18
2023-04-28T21:08:23.701Z,9.80
2023-04-28T21:10:50.275Z,11.10
2023-04-28T21:13:16.833Z,11.00
2023-04-28T21:15:43.432Z,11.00
2023-04-28T21:18:10.113Z,13.20
2023-04-28T21:20:36.678Z,13.63
2023-04-28T21:23:03.209Z,14.45
2023-04-28T21:25:29.861Z,15.20
2023-04-28T21:27:56.349Z,15.18
2023-04-28T21:30:22.906Z,15.40
2023-04-28T21:32:49.627Z,15.35
2023-04-28T21:35:16.416Z,15.60
2023-04-28T21:37:43.038Z,15.60
2023-04-28T21:40:09.992Z,16.50
2023-04-28T21:42:36.464Z,16.02
2023-04-28T21:45:03.344Z,16.65
2023-04-28T21:47:30.041Z,16.52
2023-04-28T21:49:56.612Z,17.02
2023-04-28T21:52:23.084Z,16.98
2023-04-28T21:54:49.620Z,16.42
2023-04-28T21:57:16.146Z,18.55
2023-04-28T21:59:42.624Z,18.48
2023-04-28T22:02:09.257Z,19.23
2023-04-28T22:04:36.135Z,19.38
2023-04-28T22:07:03.773Z,19.65
2023-04-28T22:09:31.116Z,20.38
2023-04-28T22:11:57.588Z,21.35
2023-04-28T22:14:39.664Z,21.67
2023-04-28T22:17:07.820Z,21.75
2023-04-28T22:19:34.284Z,22.38
2023-04-28T22:22:00.814Z,23.08
2023-04-28T22:24:27.855Z,22.05
2023-04-28T22:26:54.928Z,24.35
2023-04-28T22:29:21.715Z,25.52
2023-04-28T22:31:48.196Z,28.75
2023-04-28T22:34:14.782Z,27.50
2023-04-28T22:36:41.545Z,28.52
2023-04-28T22:39:08.401Z,28.92
2023-04-28T22:41:34.863Z,30.25
2023-04-28T22:44:01.338Z,28.75
2023-04-28T22:46:28.712Z,30.23
2023-04-28T22:48:55.553Z,29.55
2023-04-28T22:51:22.157Z,32.00
2023-04-28T22:53:48.798Z,30.80
2023-04-28T22:56:17.174Z,30.38
2023-04-28T22:58:45.599Z,31.13
2023-04-28T23:01:15.135Z,30.67
2023-04-28T23:03:41.850Z,30.83
2023-04-28T23:06:08.492Z,31.30
2023-04-28T23:08:35.521Z,31.23
2023-04-28T23:11:06.735Z,31.25
2023-04-28T23:13:33.357Z,31.00
2023-04-28T23:16:00.491Z,32.13
2023-04-28T23:18:34.417Z,31.08
2023-04-28T23:21:00.833Z,32.22
2023-04-28T23:23:27.422Z,32.22
2023-04-28T23:25:55.483Z,34.20
2023-04-28T23:28:21.914Z,33.10
2023-04-28T23:30:48.347Z,34.13
2023-04-28T23:33:15.030Z,35.13
2023-04-28T23:35:41.985Z,34.58
2023-04-28T23:38:12.290Z,34.03
2023-04-28T23:40:38.761Z,33.05
2023-04-28T23:43:05.306Z,33.38
2023-04-28T23:45:31.759Z,33.03
2023-04-28T23:47:58.283Z,32.58
2023-04-28T23:50:24.768Z,33.03
2023-04-28T23:52:51.350Z,31.58
2023-04-28T23:55:17.877Z,29.33
2023-04-28T23:57:44.476Z,29.48
